createdAt,value
2022-08-26T00:01:53.159Z,23.00
2022-08-26T00:04:21.653Z,22.90
2022-08-26T00:06:48.931Z,22.90
2022-08-26T00:09:16.857Z,22.90
2022-08-26T00:11:45.557Z,23.00
2022-08-26T00:14:14.267Z,23.10
2022-08-26T00:16:47.330Z,22.90
2022-08-26T00:19:18.146Z,22.80
2022-08-26T00:21:48.576Z,22.90
2022-08-26T00:24:16.554Z,22.90
2022-08-26T00:26:44.739Z,22.90
2022-08-26T00:29:12.388Z,22.80
2022-08-26T00:31:40.819Z,22.60
2022-08-26T00:34:09.541Z,22.70
2022-08-26T00:36:36.999Z,22.70
2022-08-26T00:39:07.141Z,22.80
2022-08-26T00:41:35.246Z,22.80
2022-08-26T00:44:02.647Z,22.90
2022-08-26T00:46:35.046Z,23.00
2022-08-26T00:49:12.509Z,22.80
2022-08-26T00:51:47.809Z,22.90
2022-08-26T00:54:16.087Z,23.00
2022-08-26T00:56:55.441Z,22.90
2022-08-26T00:59:23.987Z,22.90
2022-08-26T01:01:51.628Z,22.90
2022-08-26T01:04:22.569Z,22.90
2022-08-26T01:06:53.706Z,23.00
2022-08-26T01:09:22.652Z,23.10
2022-08-26T01:11:53.478Z,23.00
2022-08-26T01:14:22.762Z,23.00
2022-08-26T01:16:50.126Z,22.90
2022-08-26T01:19:29.852Z,22.90
2022-08-26T01:22:01.732Z,23.00
2022-08-26T01:24:31.306Z,23.00
2022-08-26T01:27:02.827Z,22.90
2022-08-26T01:29:34.594Z,22.90
2022-08-26T01:32:05.264Z,22.90
2022-08-26T01:34:36.785Z,22.80
2022-08-26T01:37:15.737Z,22.80
2022-08-26T01:39:44.845Z,23.00
2022-08-26T01:42:14.672Z,23.00
2022-08-26T01:44:55.604Z,22.80
2022-08-26T01:47:28.001Z,22.70
2022-08-26T01:50:01.635Z,22.70
2022-08-26T01:52:33.421Z,22.90
2022-08-26T01:55:01.718Z,22.80
2022-08-26T01:57:29.269Z,22.70
2022-08-26T01:59:59.125Z,22.70
2022-08-26T02:02:26.967Z,22.80
2022-08-26T02:04:59.878Z,22.50
2022-08-26T02:07:28.135Z,22.60
2022-08-26T02:09:55.629Z,22.70
2022-08-26T02:12:23.114Z,22.60
2022-08-26T02:14:53.818Z,22.70
2022-08-26T02:17:48.726Z,22.50
2022-08-26T02:20:20.989Z,22.60
2022-08-26T02:22:48.372Z,22.60
2022-08-26T02:26:00.718Z,22.60
2022-08-26T02:28:31.283Z,22.60
2022-08-26T02:30:58.334Z,22.60
2022-08-26T02:33:28.784Z,22.50
2022-08-26T02:35:56.036Z,22.50
2022-08-26T02:38:23.546Z,22.40
2022-08-26T02:40:51.027Z,22.50
2022-08-26T02:43:18.135Z,22.70
2022-08-26T02:45:45.987Z,22.50
2022-08-26T02:48:16.490Z,22.40
2022-08-26T02:50:46.027Z,22.40
2022-08-26T02:53:13.786Z,22.40
2022-08-26T02:55:42.386Z,22.40
2022-08-26T02:58:10.708Z,22.50
2022-08-26T03:00:39.004Z,22.50
2022-08-26T03:03:23.634Z,22.50
2022-08-26T03:05:51.528Z,22.50
2022-08-26T03:08:19.102Z,22.50
2022-08-26T03:10:48.117Z,22.30
2022-08-26T03:13:16.816Z,22.30
2022-08-26T03:15:44.681Z,22.30
2022-08-26T03:18:14.544Z,22.40
2022-08-26T03:20:42.288Z,22.40
2022-08-26T03:23:11.030Z,22.60
2022-08-26T03:25:38.276Z,22.40
2022-08-26T03:28:05.787Z,22.40
2022-08-26T03:30:44.996Z,22.30
2022-08-26T03:33:13.625Z,22.20
2022-08-26T03:35:43.629Z,22.20
2022-08-26T03:38:11.852Z,22.10
2022-08-26T03:40:39.826Z,22.10
2022-08-26T03:43:09.823Z,21.80
2022-08-26T03:45:37.822Z,21.90
2022-08-26T03:48:05.294Z,21.80
2022-08-26T03:50:34.370Z,22.00
2022-08-26T03:53:04.275Z,22.10
2022-08-26T03:55:34.264Z,22.00
2022-08-26T03:58:02.325Z,21.80
2022-08-26T04:00:29.897Z,22.00
2022-08-26T04:02:57.188Z,22.00
2022-08-26T04:05:25.406Z,22.00
2022-08-26T04:07:52.386Z,21.90
2022-08-26T04:10:28.544Z,21.60
2022-08-26T04:12:58.953Z,21.70
2022-08-26T04:15:27.153Z,21.70
2022-08-26T04:17:55.969Z,21.70
2022-08-26T04:20:24.489Z,21.60
2022-08-26T04:22:52.729Z,21.70
2022-08-26T04:25:20.441Z,21.90
2022-08-26T04:27:48.655Z,21.90
2022-08-26T04:30:17.708Z,21.80
2022-08-26T04:32:44.900Z,21.70
2022-08-26T04:35:11.911Z,21.70
2022-08-26T04:37:38.822Z,21.80
2022-08-26T04:40:11.045Z,21.70
2022-08-26T04:42:38.162Z,21.70
2022-08-26T04:45:09.925Z,21.80
2022-08-26T04:47:37.584Z,21.70
2022-08-26T04:50:07.447Z,21.70
2022-08-26T04:52:35.657Z,21.80
2022-08-26T04:55:02.810Z,21.70
2022-08-26T04:57:29.947Z,21.70
2022-08-26T04:59:56.933Z,21.60
2022-08-26T05:02:24.484Z,21.70
2022-08-26T05:04:52.445Z,21.70
2022-08-26T05:07:19.428Z,21.70
2022-08-26T05:09:46.531Z,21.70
2022-08-26T05:12:13.618Z,21.70
2022-08-26T05:14:41.446Z,21.50
2022-08-26T05:17:08.779Z,21.50
2022-08-26T05:19:37.148Z,21.60
2022-08-26T05:22:09.684Z,21.70
2022-08-26T05:24:36.779Z,21.70
2022-08-26T05:27:11.408Z,21.60
2022-08-26T05:29:39.333Z,21.70
2022-08-26T05:32:07.161Z,21.80
2022-08-26T05:34:34.255Z,21.80
2022-08-26T05:37:02.204Z,21.80
2022-08-26T05:39:29.271Z,21.80
2022-08-26T05:41:56.275Z,22.00
2022-08-26T05:44:23.125Z,22.00
2022-08-26T05:46:51.794Z,22.00
2022-08-26T05:49:19.045Z,22.10
2022-08-26T05:51:47.635Z,22.10
2022-08-26T05:54:22.103Z,22.10
2022-08-26T05:56:50.917Z,22.20
2022-08-26T05:59:23.906Z,22.20
2022-08-26T06:01:51.690Z,22.20
2022-08-26T06:04:18.655Z,22.20
2022-08-26T06:06:47.453Z,22.30
2022-08-26T06:09:14.676Z,22.30
2022-08-26T06:11:44.496Z,22.40
2022-08-26T06:14:11.840Z,22.50
2022-08-26T06:16:41.555Z,22.70
2022-08-26T06:19:12.200Z,22.60
2022-08-26T06:21:42.239Z,22.80
2022-08-26T06:24:31.396Z,22.80
2022-08-26T06:27:11.447Z,22.90
2022-08-26T06:29:39.729Z,22.80
2022-08-26T06:32:07.000Z,22.90
2022-08-26T06:34:35.918Z,23.10
2022-08-26T06:37:03.637Z,22.80
2022-08-26T06:39:31.726Z,22.80
2022-08-26T06:42:00.632Z,22.90
2022-08-26T06:44:27.718Z,22.70
2022-08-26T06:46:55.155Z,22.30
2022-08-26T06:49:27.175Z,22.50
2022-08-26T06:51:58.952Z,22.60
2022-08-26T06:54:27.359Z,22.80
2022-08-26T06:56:56.831Z,22.80
2022-08-26T06:59:24.273Z,22.90
2022-08-26T07:01:52.405Z,23.00
2022-08-26T07:04:22.349Z,23.00
2022-08-26T07:06:52.748Z,23.10
2022-08-26T07:09:21.875Z,23.30
2022-08-26T07:11:49.402Z,23.30
2022-08-26T07:14:21.206Z,23.40
2022-08-26T07:16:49.947Z,23.40
2022-08-26T07:19:29.825Z,23.50
2022-08-26T07:22:03.566Z,23.50
2022-08-26T07:24:33.075Z,23.40
2022-08-26T07:27:06.630Z,23.60
2022-08-26T07:29:35.313Z,23.50
2022-08-26T07:32:03.218Z,23.70
2022-08-26T07:34:32.216Z,23.90
2022-08-26T07:37:00.700Z,23.80
2022-08-26T07:39:28.344Z,24.00
2022-08-26T07:41:59.923Z,24.10
2022-08-26T07:44:27.849Z,24.10
2022-08-26T07:46:54.784Z,24.20
2022-08-26T07:49:23.647Z,24.10
2022-08-26T07:51:51.671Z,24.30
2022-08-26T07:54:19.836Z,24.30
2022-08-26T07:56:48.540Z,24.30
2022-08-26T07:59:17.707Z,24.40
2022-08-26T08:01:46.047Z,24.40
2022-08-26T08:04:18.425Z,24.50
2022-08-26T08:06:46.263Z,24.40
2022-08-26T08:09:16.085Z,24.50
2022-08-26T08:11:44.909Z,24.50
2022-08-26T08:14:13.178Z,24.50
2022-08-26T08:16:46.018Z,24.50
2022-08-26T08:19:15.116Z,24.60
2022-08-26T08:21:43.408Z,24.70
2022-08-26T08:24:11.435Z,24.70
2022-08-26T08:26:38.888Z,24.80
2022-08-26T08:29:06.260Z,24.90
2022-08-26T08:34:22.803Z,25.10
2022-08-26T08:36:50.614Z,25.10
2022-08-26T08:39:22.019Z,25.20
2022-08-26T08:42:07.500Z,25.20
2022-08-26T08:44:40.354Z,25.20
2022-08-26T08:47:31.121Z,25.20
2022-08-26T08:50:06.588Z,25.40
2022-08-26T08:52:36.485Z,25.30
2022-08-26T08:55:10.956Z,25.40
2022-08-26T08:58:02.615Z,25.70
2022-08-26T09:00:39.823Z,25.80
2022-08-26T09:03:47.854Z,26.10
2022-08-26T09:06:19.068Z,26.30
2022-08-26T09:08:50.113Z,26.60
2022-08-26T09:11:20.092Z,26.90
2022-08-26T09:13:54.477Z,27.00
2022-08-26T09:16:34.308Z,27.00
2022-08-26T09:19:11.402Z,27.20
2022-08-26T09:21:38.874Z,27.20
2022-08-26T09:24:06.776Z,27.20
2022-08-26T09:26:39.759Z,27.20
2022-08-26T09:29:29.045Z,27.20
2022-08-26T09:32:24.414Z,27.20
2022-08-26T09:34:58.975Z,27.40
2022-08-26T09:40:35.156Z,28.00
2022-08-26T09:43:10.761Z,27.80
2022-08-26T09:45:40.553Z,27.80
2022-08-26T09:48:31.765Z,27.90
2022-08-26T09:51:24.081Z,28.60
2022-08-26T09:53:57.970Z,29.20
2022-08-26T09:56:29.029Z,29.40
2022-08-26T09:58:57.816Z,29.80
2022-08-26T10:01:36.933Z,30.50
2022-08-26T10:04:07.711Z,30.70
2022-08-26T10:06:40.362Z,31.00
2022-08-26T10:09:13.953Z,31.50
2022-08-26T10:11:55.050Z,31.00
2022-08-26T10:14:31.090Z,30.80
2022-08-26T10:17:29.059Z,30.50
2022-08-26T10:20:06.370Z,30.20
2022-08-26T10:23:05.189Z,29.50
2022-08-26T10:25:54.116Z,29.60
2022-08-26T10:29:01.468Z,30.30
2022-08-26T10:31:40.316Z,30.60
2022-08-26T10:34:09.582Z,30.50
2022-08-26T10:37:10.843Z,30.70
2022-08-26T10:39:57.147Z,31.20
2022-08-26T10:42:42.005Z,31.70
2022-08-26T10:45:22.223Z,31.30
2022-08-26T10:48:00.089Z,30.80
2022-08-26T10:50:47.426Z,30.10
2022-08-26T10:53:26.577Z,30.20
2022-08-26T10:56:06.109Z,30.70
2022-08-26T10:58:54.823Z,31.50
2022-08-26T11:01:51.171Z,32.10
2022-08-26T11:04:28.998Z,32.20
2022-08-26T11:07:33.664Z,31.90
2022-08-26T11:10:05.109Z,31.20
2022-08-26T11:12:37.968Z,30.80
2022-08-26T11:15:24.653Z,30.30
2022-08-26T11:17:51.772Z,29.80
2022-08-26T11:20:28.632Z,29.70
2022-08-26T11:23:16.438Z,29.80
2022-08-26T11:26:04.642Z,30.50
2022-08-26T11:28:40.000Z,31.20
2022-08-26T11:31:40.439Z,31.90
2022-08-26T11:34:13.075Z,32.00
2022-08-26T11:36:46.157Z,31.70
2022-08-26T11:39:36.850Z,31.50
2022-08-26T11:42:32.762Z,30.80
2022-08-26T11:45:05.338Z,30.50
2022-08-26T11:47:32.711Z,30.00
2022-08-26T11:50:31.948Z,29.90
2022-08-26T11:53:06.313Z,29.70
2022-08-26T11:55:42.507Z,29.80
2022-08-26T11:58:12.918Z,29.90
2022-08-26T12:01:03.609Z,29.90
2022-08-26T12:03:52.121Z,30.10
2022-08-26T12:06:28.027Z,30.60
2022-08-26T12:08:59.924Z,31.50
2022-08-26T12:11:33.795Z,32.20
2022-08-26T12:14:28.803Z,32.70
2022-08-26T12:17:08.344Z,32.40
2022-08-26T12:19:37.309Z,32.20
2022-08-26T12:22:23.022Z,32.10
2022-08-26T12:24:54.539Z,32.20
2022-08-26T12:27:23.066Z,31.90
2022-08-26T12:30:08.358Z,31.90
2022-08-26T12:32:39.129Z,32.00
2022-08-26T12:35:24.360Z,32.20
2022-08-26T12:37:54.301Z,32.30
2022-08-26T12:40:40.031Z,31.90
2022-08-26T12:43:09.696Z,31.20
2022-08-26T12:45:41.707Z,31.30
2022-08-26T12:48:24.577Z,31.70
2022-08-26T12:50:52.677Z,31.50
2022-08-26T12:53:34.571Z,31.40
2022-08-26T12:56:05.543Z,31.00
2022-08-26T12:58:39.024Z,30.80
2022-08-26T13:01:08.943Z,30.10
2022-08-26T13:03:40.387Z,29.70
2022-08-26T13:06:15.693Z,29.60
2022-08-26T13:08:51.472Z,29.40
2022-08-26T13:11:20.704Z,29.20
2022-08-26T13:13:51.942Z,29.00
2022-08-26T13:16:22.334Z,28.90
2022-08-26T13:18:52.376Z,28.70
2022-08-26T13:21:22.886Z,28.90
2022-08-26T13:23:50.627Z,29.10
2022-08-26T13:26:18.444Z,29.20
2022-08-26T13:28:45.357Z,29.20
2022-08-26T13:31:20.811Z,29.50
2022-08-26T13:33:54.010Z,29.50
2022-08-26T13:36:21.176Z,29.70
2022-08-26T13:38:48.349Z,29.80
2022-08-26T13:41:28.913Z,30.00
2022-08-26T13:43:58.792Z,30.10
2022-08-26T13:46:27.872Z,30.00
2022-08-26T13:48:55.738Z,29.80
2022-08-26T13:51:23.496Z,29.70
2022-08-26T13:53:52.363Z,29.60
2022-08-26T13:56:19.868Z,29.60
2022-08-26T13:58:47.966Z,29.60
2022-08-26T14:01:17.672Z,29.60
2022-08-26T14:03:46.261Z,29.50
2022-08-26T14:06:13.503Z,29.30
2022-08-26T14:08:41.608Z,29.20
2022-08-26T14:11:09.063Z,29.10
2022-08-26T14:13:36.359Z,29.00
2022-08-26T14:16:07.993Z,29.00
2022-08-26T14:18:41.808Z,28.80
2022-08-26T14:21:12.865Z,28.80
2022-08-26T14:23:40.362Z,28.50
2022-08-26T14:26:14.326Z,28.20
2022-08-26T14:28:55.370Z,28.10
2022-08-26T14:31:23.926Z,28.20
2022-08-26T14:33:51.048Z,28.30
2022-08-26T14:36:33.616Z,28.50
2022-08-26T14:39:10.093Z,28.60
2022-08-26T14:41:53.952Z,28.70
2022-08-26T14:44:26.069Z,28.60
2022-08-26T14:46:54.542Z,28.70
2022-08-26T14:49:23.590Z,28.50
2022-08-26T14:51:51.006Z,28.40
2022-08-26T14:54:19.880Z,28.40
2022-08-26T14:56:48.877Z,28.30
2022-08-26T14:59:18.733Z,28.30
2022-08-26T15:01:46.193Z,28.00
2022-08-26T15:04:13.425Z,27.80
2022-08-26T15:06:40.886Z,27.80
2022-08-26T15:09:08.781Z,27.80
2022-08-26T15:11:35.863Z,27.80
2022-08-26T15:14:03.247Z,27.70
2022-08-26T15:16:31.043Z,27.80
2022-08-26T15:19:00.734Z,27.80
2022-08-26T15:21:28.653Z,28.20
2022-08-26T15:23:55.737Z,28.40
2022-08-26T15:26:23.772Z,28.30
2022-08-26T15:28:51.241Z,28.40
2022-08-26T15:31:18.331Z,28.40
2022-08-26T15:33:45.784Z,28.30
2022-08-26T15:36:12.842Z,28.00
2022-08-26T15:38:42.382Z,28.00
2022-08-26T15:41:10.298Z,27.90
2022-08-26T15:43:38.346Z,27.70
2022-08-26T15:46:13.698Z,27.50
2022-08-26T15:48:40.835Z,27.50
2022-08-26T15:51:18.355Z,27.20
2022-08-26T15:53:45.603Z,27.50
2022-08-26T15:56:13.256Z,27.40
2022-08-26T15:58:40.090Z,27.20
2022-08-26T16:01:08.581Z,27.10
2022-08-26T16:03:36.603Z,27.10
2022-08-26T16:06:03.722Z,27.00
2022-08-26T16:08:30.686Z,27.00
2022-08-26T16:11:04.632Z,27.00
2022-08-26T16:13:39.648Z,27.10
2022-08-26T16:16:08.126Z,27.40
2022-08-26T16:18:35.277Z,27.60
2022-08-26T16:21:12.822Z,27.50
2022-08-26T16:23:45.116Z,27.30
2022-08-26T16:26:16.404Z,27.30
2022-08-26T16:28:43.843Z,27.50
2022-08-26T16:31:11.619Z,27.40
2022-08-26T16:33:38.652Z,27.60
2022-08-26T16:36:06.912Z,27.80
2022-08-26T16:38:35.541Z,27.60
2022-08-26T16:41:02.580Z,27.50
2022-08-26T16:43:29.847Z,27.50
2022-08-26T16:45:57.044Z,27.30
2022-08-26T16:48:24.936Z,27.20
2022-08-26T16:50:55.465Z,27.00
2022-08-26T16:53:24.319Z,26.90
2022-08-26T16:55:51.479Z,26.80
2022-08-26T16:58:22.012Z,26.70
2022-08-26T17:00:49.971Z,26.60
2022-08-26T17:03:17.555Z,26.40
2022-08-26T17:05:44.718Z,26.30
2022-08-26T17:08:15.434Z,26.30
2022-08-26T17:10:55.030Z,26.20
2022-08-26T17:13:34.813Z,26.20
2022-08-26T17:16:06.008Z,25.90
2022-08-26T17:18:33.683Z,25.80
2022-08-26T17:21:06.921Z,25.80
2022-08-26T17:23:34.315Z,25.80
2022-08-26T17:26:01.494Z,25.50
2022-08-26T17:28:28.441Z,25.50
2022-08-26T17:30:59.847Z,25.50
2022-08-26T17:33:27.795Z,25.50
2022-08-26T17:35:56.251Z,25.40
2022-08-26T17:38:23.683Z,25.40
2022-08-26T17:40:52.612Z,25.40
2022-08-26T17:43:19.742Z,25.40
2022-08-26T17:45:47.352Z,25.20
2022-08-26T17:48:14.486Z,25.10
2022-08-26T17:50:45.545Z,25.10
2022-08-26T17:53:19.090Z,25.10
2022-08-26T17:55:47.372Z,25.00
2022-08-26T17:58:20.157Z,24.90
2022-08-26T18:00:52.956Z,24.90
2022-08-26T18:03:19.965Z,24.90
2022-08-26T18:05:53.156Z,24.70
2022-08-26T18:08:21.218Z,24.80
2022-08-26T18:10:48.403Z,24.60
2022-08-26T18:13:16.187Z,24.50
2022-08-26T18:15:45.488Z,24.50
2022-08-26T18:18:16.105Z,24.50
2022-08-26T18:20:52.586Z,24.40
2022-08-26T18:23:31.528Z,24.20
2022-08-26T18:25:58.764Z,24.30
2022-08-26T18:28:25.705Z,24.20
2022-08-26T18:30:52.770Z,24.20
2022-08-26T18:33:21.579Z,24.10
2022-08-26T18:35:48.500Z,24.10
2022-08-26T18:38:16.404Z,24.00
2022-08-26T18:40:45.487Z,23.90
2022-08-26T18:43:12.608Z,23.90
2022-08-26T18:45:39.860Z,23.70
2022-08-26T18:48:07.040Z,23.60
2022-08-26T18:50:37.358Z,23.60
2022-08-26T18:53:04.669Z,23.60
2022-08-26T18:55:31.725Z,23.60
2022-08-26T18:57:58.829Z,23.40
2022-08-26T19:00:25.937Z,23.40
2022-08-26T19:02:55.986Z,23.40
2022-08-26T19:05:23.417Z,23.30
2022-08-26T19:07:51.244Z,23.40
2022-08-26T19:10:18.295Z,23.30
2022-08-26T19:12:45.589Z,23.20
2022-08-26T19:15:18.959Z,23.10
2022-08-26T19:17:45.841Z,23.20
2022-08-26T19:20:12.918Z,23.00
2022-08-26T19:22:40.011Z,23.00
2022-08-26T19:25:07.406Z,22.90
2022-08-26T19:27:34.579Z,22.90
2022-08-26T19:30:01.627Z,22.70
2022-08-26T19:32:28.638Z,22.60
2022-08-26T19:34:56.023Z,22.50
2022-08-26T19:37:23.739Z,22.50
2022-08-26T19:39:51.554Z,22.50
2022-08-26T19:42:18.915Z,22.40
2022-08-26T19:45:04.280Z,22.30
2022-08-26T19:47:31.637Z,22.30
2022-08-26T19:49:58.546Z,22.30
2022-08-26T19:52:29.968Z,22.20
2022-08-26T19:54:58.394Z,22.30
2022-08-26T19:57:25.555Z,22.20
2022-08-26T19:59:52.689Z,22.10
2022-08-26T20:02:19.952Z,22.10
2022-08-26T20:04:47.363Z,21.90
2022-08-26T20:07:18.530Z,21.90
2022-08-26T20:09:47.327Z,21.80
2022-08-26T20:12:15.573Z,21.70
2022-08-26T20:14:42.983Z,21.70
2022-08-26T20:17:10.312Z,21.80
2022-08-26T20:19:55.678Z,21.70
2022-08-26T20:22:23.728Z,21.70
2022-08-26T20:24:51.736Z,21.70
2022-08-26T20:27:18.691Z,21.70
2022-08-26T20:29:45.552Z,21.70
2022-08-26T20:32:12.764Z,21.50
2022-08-26T20:34:40.134Z,21.50
2022-08-26T20:37:08.566Z,21.40
2022-08-26T20:39:35.968Z,21.40
2022-08-26T20:42:03.415Z,21.30
2022-08-26T20:44:30.895Z,21.30
2022-08-26T20:46:59.188Z,21.10
2022-08-26T20:49:27.712Z,21.20
2022-08-26T20:51:56.075Z,21.20
2022-08-26T20:54:28.476Z,21.20
2022-08-26T20:56:57.772Z,21.10
2022-08-26T20:59:25.849Z,21.20
2022-08-26T21:01:53.201Z,21.00
2022-08-26T21:04:24.658Z,21.10
2022-08-26T21:06:53.073Z,21.00
2022-08-26T21:09:22.705Z,20.90
2022-08-26T21:11:50.261Z,20.90
2022-08-26T21:14:17.652Z,20.90
2022-08-26T21:16:46.613Z,20.80
2022-08-26T21:19:15.775Z,20.80
2022-08-26T21:21:43.270Z,20.70
2022-08-26T21:24:10.656Z,20.50
2022-08-26T21:26:38.266Z,20.50
2022-08-26T21:29:07.924Z,20.40
2022-08-26T21:31:35.162Z,20.40
2022-08-26T21:34:02.135Z,20.50
2022-08-26T21:36:29.856Z,20.30
2022-08-26T21:38:58.313Z,20.30
2022-08-26T21:41:26.619Z,20.30
2022-08-26T21:43:58.993Z,20.20
2022-08-26T21:46:28.467Z,20.30
2022-08-26T21:48:58.971Z,20.30
2022-08-26T21:51:31.419Z,20.20
2022-08-26T21:54:00.577Z,20.00
2022-08-26T21:56:29.399Z,20.10
2022-08-26T21:58:57.210Z,20.00
2022-08-26T22:01:28.654Z,20.10
2022-08-26T22:03:55.944Z,20.00
2022-08-26T22:06:24.886Z,20.10
2022-08-26T22:08:52.439Z,20.10
2022-08-26T22:11:20.023Z,20.10
2022-08-26T22:13:48.678Z,20.20
2022-08-26T22:16:16.340Z,20.20
2022-08-26T22:18:45.156Z,20.10
2022-08-26T22:21:16.092Z,19.90
2022-08-26T22:23:43.687Z,19.90
2022-08-26T22:26:12.841Z,19.80
2022-08-26T22:28:40.361Z,19.80
2022-08-26T22:31:11.324Z,19.90
2022-08-26T22:33:39.316Z,19.90
2022-08-26T22:36:06.700Z,19.90
2022-08-26T22:38:34.497Z,20.00
2022-08-26T22:41:08.451Z,19.80
2022-08-26T22:43:36.233Z,19.80
2022-08-26T22:46:03.368Z,19.80
2022-08-26T22:48:30.483Z,19.80
2022-08-26T22:51:00.289Z,19.90
2022-08-26T22:53:28.308Z,19.90
2022-08-26T22:55:58.946Z,19.80
2022-08-26T22:58:30.435Z,19.70
2022-08-26T23:00:59.329Z,19.70
2022-08-26T23:03:27.682Z,19.50
2022-08-26T23:05:56.085Z,19.60
2022-08-26T23:08:24.995Z,19.60
2022-08-26T23:10:52.805Z,19.60
2022-08-26T23:13:20.843Z,19.50
2022-08-26T23:15:47.946Z,19.50
2022-08-26T23:18:15.361Z,19.50
2022-08-26T23:20:42.558Z,19.60
2022-08-26T23:23:09.726Z,19.60
2022-08-26T23:25:36.659Z,19.60
2022-08-26T23:28:04.473Z,19.50
2022-08-26T23:30:34.624Z,19.60
2022-08-26T23:33:01.857Z,19.50
2022-08-26T23:35:29.317Z,19.50
2022-08-26T23:37:57.864Z,19.30
2022-08-26T23:40:34.910Z,19.10
2022-08-26T23:43:04.979Z,19.10
2022-08-26T23:45:32.652Z,19.20
2022-08-26T23:47:59.831Z,19.20
2022-08-26T23:50:48.585Z,19.30
2022-08-26T23:53:20.064Z,19.30
2022-08-26T23:55:49.282Z,19.20
2022-08-26T23:58:18.095Z,19.30
